Time;durP1;ratioP1;P1;durP2;ratioP2;P2;SDS_P1;SDS_P2;PMS_P1;PMS_P2;Temp;Humidity;BMP_temperature;BMP_pressure;BME280_temperature;BME280_humidity;BME280_pressure;Samples;Min_cycle;Max_cycle;Signal;HPM_P1;HPM_P2
2023/07/05 00:01:01;;;;;;;5.23;4.40;;;;;;;18.35;100.00;99173.50;5113387;28;20189;-76
2023/07/05 00:03:28;;;;;;;4.60;4.20;;;;;;;18.32;100.00;99163.22;5112846;28;20243;-75
2023/07/05 00:05:54;;;;;;;5.10;4.60;;;;;;;18.31;100.00;99169.72;5111686;28;20203;-75
2023/07/05 00:08:22;;;;;;;4.53;4.13;;;;;;;18.35;100.00;99170.78;5107574;28;20192;-75
2023/07/05 00:10:49;;;;;;;4.60;4.20;;;;;;;18.35;100.00;99164.53;5108337;28;20230;-75
2023/07/05 00:13:16;;;;;;;4.70;4.30;;;;;;;18.37;100.00;99165.91;5101234;28;20339;-75
2023/07/05 00:15:46;;;;;;;5.60;4.73;;;;;;;18.30;100.00;99159.97;5105918;28;20196;-75
2023/07/05 00:18:13;;;;;;;4.73;4.33;;;;;;;18.36;100.00;99161.56;5112825;28;20222;-76
2023/07/05 00:20:40;;;;;;;5.30;4.20;;;;;;;18.32;100.00;99155.06;5107977;28;20304;-75
2023/07/05 00:23:06;;;;;;;4.47;3.97;;;;;;;18.32;100.00;99159.69;5107084;28;20191;-75
2023/07/05 00:25:33;;;;;;;5.30;4.80;;;;;;;18.32;100.00;99159.69;5113060;28;20229;-75
2023/07/05 00:27:59;;;;;;;4.80;4.40;;;;;;;18.29;100.00;99152.13;5112692;28;20273;-76
2023/07/05 00:30:26;;;;;;;5.30;4.80;;;;;;;18.25;100.00;99154.56;5112838;28;20243;-75
2023/07/05 00:32:53;;;;;;;4.90;4.50;;;;;;;18.27;100.00;99154.28;5102292;28;20199;-75
2023/07/05 00:35:19;;;;;;;5.20;4.70;;;;;;;18.23;100.00;99156.75;5094511;28;20203;-75
2023/07/05 00:37:46;;;;;;;5.30;4.70;;;;;;;18.22;100.00;99151.63;5094452;28;20679;-75
2023/07/05 00:40:13;;;;;;;5.10;4.60;;;;;;;18.19;100.00;99136.72;5112785;28;20224;-74
2023/07/05 00:42:40;;;;;;;5.20;4.70;;;;;;;18.18;100.00;99139.72;5094379;28;20665;-75
2023/07/05 00:45:35;;;;;;;4.30;3.93;;;;;;;18.13;100.00;99134.31;5112605;28;20653;-76
2023/07/05 00:48:03;;;;;;;5.87;4.77;;;;;;;18.04;100.00;99134.91;5087677;28;20216;-76
2023/07/05 00:50:36;;;;;;;6.37;5.00;;;;;;;18.01;100.00;99137.34;5094471;28;20736;-75
2023/07/05 00:53:03;;;;;;;5.17;4.70;;;;;;;17.99;100.00;99134.94;5081194;28;20611;-75
2023/07/05 00:55:30;;;;;;;5.53;4.43;;;;;;;17.97;100.00;99128.16;5112560;28;20281;-75
2023/07/05 00:57:57;;;;;;;5.87;4.70;;;;;;;17.89;100.00;99126.88;5094313;28;20258;-75
2023/07/05 01:00:25;;;;;;;4.90;4.50;;;;;;;17.89;100.00;99121.44;5094267;28;20246;-76
2023/07/05 01:02:56;;;;;;;5.30;4.80;;;;;;;17.89;100.00;99128.75;5100531;28;20280;-75
2023/07/05 01:05:24;;;;;;;5.27;4.77;;;;;;;17.86;100.00;99121.19;5046817;28;20229;-75
2023/07/05 01:07:51;;;;;;;6.10;4.57;;;;;;;17.81;100.00;99130.16;5070573;28;20213;-75
2023/07/05 01:10:23;;;;;;;4.93;4.43;;;;;;;17.77;100.00;99123.69;5069787;28;20280;-74
2023/07/05 01:13:10;;;;;;;5.87;4.80;;;;;;;17.74;100.00;99120.69;5070186;28;20201;-75
2023/07/05 01:15:43;;;;;;;5.10;4.60;;;;;;;17.73;100.00;99121.81;5068324;28;20195;-75
2023/07/05 01:18:22;;;;;;;4.97;4.40;;;;;;;17.73;100.00;99121.81;5059465;28;20237;-75
2023/07/05 01:21:09;;;;;;;4.93;4.50;;;;;;;17.67;100.00;99123.72;5069221;28;20199;-75
2023/07/05 01:24:01;;;;;;;5.77;4.67;;;;;;;17.62;100.00;99128.34;5069498;28;20202;-76
2023/07/05 01:26:45;;;;;;;5.00;4.60;;;;;;;17.53;100.00;99134.31;5063467;28;20226;-76
2023/07/05 01:29:34;;;;;;;5.30;4.80;;;;;;;17.45;100.00;99123.25;5064096;28;20188;-75
2023/07/05 01:32:10;;;;;;;7.33;5.00;;;;;;;17.34;100.00;99127.06;5071297;28;20195;-76
2023/07/05 01:34:38;;;;;;;5.40;4.70;;;;;;;17.29;100.00;99132.50;5068957;28;20248;-75
2023/07/05 01:37:06;;;;;;;5.37;4.70;;;;;;;17.25;100.00;99126.84;5055276;28;20662;-77
2023/07/05 01:39:33;;;;;;;5.30;4.80;;;;;;;17.17;100.00;99119.25;5070485;28;20269;-74
2023/07/05 01:42:01;;;;;;;5.20;4.70;;;;;;;17.13;100.00;99120.88;5070153;28;20657;-75
2023/07/05 01:44:28;;;;;;;5.23;4.83;;;;;;;17.09;100.00;99123.34;5070042;28;20190;-73
2023/07/05 01:47:01;;;;;;;5.00;4.37;;;;;;;17.06;100.00;99123.09;5067354;28;20246;-78
2023/07/05 01:49:40;;;;;;;4.87;4.47;;;;;;;17.00;100.00;99118.75;5071409;28;20260;-77
2023/07/05 01:52:38;;;;;;;5.70;5.10;;;;;;;16.93;100.00;99119.06;5069815;28;20196;-74
2023/07/05 01:55:15;;;;;;;5.30;4.80;;;;;;;16.91;100.00;99123.09;5071391;28;20185;-74
2023/07/05 01:57:56;;;;;;;5.00;4.50;;;;;;;16.88;100.00;99119.06;5053221;28;20193;-75
2023/07/05 02:00:25;;;;;;;5.50;5.00;;;;;;;16.85;100.00;99124.19;5044983;28;20202;-73
2023/07/05 02:02:55;;;;;;;6.07;4.77;;;;;;;16.75;100.00;99116.09;5049208;28;20195;-76
2023/07/05 02:05:27;;;;;;;5.73;5.03;;;;;;;16.70;100.00;99117.69;5072130;28;20228;-74
2023/07/05 02:07:54;;;;;;;5.93;4.83;;;;;;;16.71;100.00;99116.63;5080615;28;20218;-75
2023/07/05 02:10:21;;;;;;;5.47;4.97;;;;;;;16.65;100.00;99117.72;5090000;28;20251;-74
2023/07/05 02:12:48;;;;;;;6.73;5.20;;;;;;;16.61;100.00;99121.25;5089822;28;20198;-76
2023/07/05 02:15:15;;;;;;;5.27;4.77;;;;;;;16.60;100.00;99112.31;5086051;28;20194;-75
2023/07/05 02:17:41;;;;;;;6.63;4.80;;;;;;;16.65;100.00;99115.03;5089928;28;20678;-75
2023/07/05 02:20:08;;;;;;;5.50;4.77;;;;;;;16.67;100.00;99118.25;5089146;28;20631;-75
2023/07/05 02:22:35;;;;;;;5.47;4.97;;;;;;;16.63;100.00;99111.78;5089811;28;20207;-75
2023/07/05 02:25:02;;;;;;;6.53;5.70;;;;;;;16.63;100.00;99114.47;5084946;28;20243;-76
2023/07/05 02:27:30;;;;;;;5.70;5.10;;;;;;;16.65;100.00;99116.91;5087343;28;20224;-75
2023/07/05 02:29:57;;;;;;;5.80;5.23;;;;;;;16.69;100.00;99112.59;5091081;28;20566;-74
2023/07/05 02:32:24;;;;;;;5.70;5.20;;;;;;;16.71;100.00;99115.81;5090734;28;20191;-74
2023/07/05 02:34:52;;;;;;;5.73;5.20;;;;;;;16.74;100.00;99120.69;5091756;28;20598;-75
2023/07/05 02:37:19;;;;;;;5.97;5.37;;;;;;;16.75;100.00;99111.47;5094319;28;20203;-73
2023/07/05 02:39:51;;;;;;;7.33;5.37;;;;;;;16.78;100.00;99113.66;5094350;28;20242;-75
2023/07/05 02:42:18;;;;;;;5.50;5.00;;;;;;;16.78;100.00;99110.94;5094362;28;20196;-75
2023/07/05 02:44:47;;;;;;;5.80;5.13;;;;;;;16.84;100.00;99109.06;5094333;28;20184;-76
2023/07/05 02:47:17;;;;;;;5.83;5.00;;;;;;;16.84;100.00;99117.16;5094186;28;20200;-74
2023/07/05 02:49:44;;;;;;;5.37;4.87;;;;;;;16.82;100.00;99114.72;5094014;28;20631;-75
2023/07/05 02:52:11;;;;;;;5.40;4.90;;;;;;;16.79;100.00;99118.00;5093924;28;20714;-75
2023/07/05 02:54:38;;;;;;;6.07;4.97;;;;;;;16.71;100.00;99121.22;5090443;28;20194;-75
2023/07/05 02:57:04;;;;;;;5.90;5.03;;;;;;;16.61;100.00;99113.91;5079824;28;20259;-75
2023/07/05 02:59:31;;;;;;;5.40;4.90;;;;;;;16.60;100.00;99117.72;5076849;28;20228;-74
2023/07/05 03:01:58;;;;;;;5.93;5.33;;;;;;;16.58;100.00;99119.88;5075644;28;20581;-74
2023/07/05 03:04:26;;;;;;;6.00;5.00;;;;;;;16.57;100.00;99114.69;5100367;28;20224;-77
2023/07/05 03:06:53;;;;;;;5.57;5.00;;;;;;;16.58;100.00;99110.94;5100663;28;20637;-75
2023/07/05 03:09:20;;;;;;;5.47;5.00;;;;;;;16.60;100.00;99108.81;5080768;28;20193;-74
2023/07/05 03:11:47;;;;;;;5.10;4.63;;;;;;;16.61;100.00;99107.72;5101852;28;20264;-75
2023/07/05 03:14:13;;;;;;;5.80;5.10;;;;;;;16.58;100.00;99111.78;5108186;28;20180;-75
2023/07/05 03:16:40;;;;;;;5.87;4.77;;;;;;;16.57;100.00;99118.22;5114020;28;20245;-75
2023/07/05 03:19:10;;;;;;;5.40;4.90;;;;;;;16.55;100.00;99125.00;5108174;28;20196;-75
2023/07/05 03:21:37;;;;;;;5.83;5.07;;;;;;;16.51;100.00;99113.91;5107578;28;20250;-76
2023/07/05 03:24:04;;;;;;;5.70;5.10;;;;;;;16.51;100.00;99124.72;5113937;28;20271;-74
2023/07/05 03:26:31;;;;;;;6.40;5.40;;;;;;;16.51;100.00;99118.50;5110080;28;20208;-73
2023/07/05 03:28:57;;;;;;;5.57;5.07;;;;;;;16.58;100.00;99124.47;5095314;28;20263;-75
2023/07/05 03:31:25;;;;;;;6.03;5.43;;;;;;;16.55;100.00;99125.81;5091652;28;20225;-76
2023/07/05 03:33:53;;;;;;;5.73;5.17;;;;;;;16.56;100.00;99116.59;5112387;28;20199;-74
2023/07/05 03:36:20;;;;;;;5.57;5.07;;;;;;;16.61;100.00;99113.91;5095735;28;20200;-74
2023/07/05 03:38:51;;;;;;;7.10;5.37;;;;;;;16.69;100.00;99131.50;5113705;28;20286;-75
2023/07/05 03:41:20;;;;;;;5.93;5.33;;;;;;;16.71;100.00;99123.94;5095963;28;20261;-75
2023/07/05 03:43:48;;;;;;;7.13;5.33;;;;;;;16.76;100.00;99123.09;5095702;28;20651;-74
2023/07/05 03:46:16;;;;;;;5.80;5.13;;;;;;;16.75;100.00;99121.50;5113096;28;20705;-75
2023/07/05 03:48:44;;;;;;;6.50;5.20;;;;;;;16.78;100.00;99119.06;5113483;28;20717;-74
2023/07/05 03:51:13;;;;;;;5.87;5.27;;;;;;;16.80;100.00;99116.88;5092157;28;20185;-75
2023/07/05 03:53:40;;;;;;;6.17;5.40;;;;;;;16.88;100.00;99110.94;5107346;28;20677;-76
2023/07/05 03:56:09;;;;;;;5.80;5.13;;;;;;;16.96;100.00;99106.84;5105873;28;20702;-75
2023/07/05 03:58:36;;;;;;;6.07;5.07;;;;;;;17.12;100.00;99108.47;5089464;28;20189;-76
2023/07/05 04:01:15;;;;;;;6.63;5.43;;;;;;;17.32;100.00;99113.78;5102975;28;20285;-75
2023/07/05 04:03:43;;;;;;;6.83;5.47;;;;;;;17.57;100.00;99111.00;5104380;28;20236;-75
2023/07/05 04:06:10;;;;;;;6.33;5.70;;;;;;;17.82;100.00;99102.00;5102044;28;20198;-75
2023/07/05 04:08:37;;;;;;;6.77;5.47;;;;;;;18.20;100.00;99100.38;5085299;28;20317;-75
2023/07/05 04:11:03;;;;;;;6.30;5.30;;;;;;;18.92;100.00;99101.44;5092110;28;20313;-76
2023/07/05 04:13:30;;;;;;;7.87;5.43;;;;;;;21.47;100.00;99101.72;5097275;28;20282;-75
2023/07/05 04:16:10;;;;;;;6.53;5.40;;;;;;;24.04;100.00;99103.72;5098902;28;20580;-76
2023/07/05 04:18:38;;;;;;;7.93;4.73;;;;;;;25.81;100.00;99103.97;5079521;28;20206;-75
2023/07/05 04:21:05;;;;;;;5.40;4.60;;;;;;;27.20;100.00;99103.59;5107776;28;20279;-74
2023/07/05 04:23:32;;;;;;;4.80;4.30;;;;;;;28.09;100.00;99108.03;5112659;28;20189;-74
2023/07/05 04:26:04;;;;;;;7.17;4.73;;;;;;;28.87;93.65;99105.63;5104473;28;20745;-75
2023/07/05 04:28:32;;;;;;;5.05;4.55;;;;;;;29.68;84.99;99109.66;5109303;28;20273;-75
2023/07/05 04:30:59;;;;;;;5.63;4.47;;;;;;;28.19;85.82;99109.53;5107271;28;20188;-76
2023/07/05 04:33:26;;;;;;;5.30;4.50;;;;;;;28.02;88.76;99110.59;5112645;28;20194;-74
2023/07/05 04:35:56;;;;;;;5.97;5.20;;;;;;;27.72;88.55;99106.47;5087990;28;20295;-76
2023/07/05 04:38:23;;;;;;;5.03;4.55;;;;;;;27.07;90.18;99108.25;5112679;28;20213;-75
2023/07/05 04:40:49;;;;;;;5.93;4.60;;;;;;;25.92;94.52;99104.41;5112688;28;20993;-76
2023/07/05 04:43:16;;;;;;;5.70;4.40;;;;;;;25.07;100.00;99113.81;5112547;28;20726;-75
2023/07/05 04:45:53;;;;;;;5.05;4.55;;;;;;;24.19;100.00;99111.50;5105445;28;20611;-75
2023/07/05 04:48:20;;;;;;;5.10;4.60;;;;;;;23.54;100.00;99106.84;5103249;28;20212;-75
2023/07/05 04:50:48;;;;;;;4.97;4.47;;;;;;;22.97;100.00;99103.19;5088540;28;20222;-74
2023/07/05 04:53:15;;;;;;;5.60;4.80;;;;;;;22.67;100.00;99095.78;5093805;28;20205;-74
2023/07/05 04:55:50;;;;;;;5.20;4.70;;;;;;;22.78;100.00;99097.16;5109171;28;20216;-75
2023/07/05 04:58:18;;;;;;;6.00;5.07;;;;;;;22.46;100.00;99100.91;5108564;28;20251;-75
2023/07/05 05:00:51;;;;;;;6.18;5.40;;;;;;;22.18;100.00;99105.69;5112347;28;20187;-75
2023/07/05 05:03:20;;;;;;;8.70;5.22;;;;;;;22.07;100.00;99101.56;5104824;28;20240;-75
2023/07/05 05:05:52;;;;;;;7.93;5.50;;;;;;;21.96;100.00;99105.66;5105235;28;20221;-74
2023/07/05 05:08:20;;;;;;;7.07;5.40;;;;;;;21.87;100.00;99100.09;5101617;28;20215;-75
2023/07/05 05:10:51;;;;;;;6.10;5.13;;;;;;;21.79;100.00;99103.50;5112191;28;20265;-75
2023/07/05 05:13:19;;;;;;;8.20;4.45;;;;;;;21.73;100.00;99112.13;5106412;28;20283;-75
2023/07/05 05:15:46;;;;;;;5.70;4.40;;;;;;;21.65;100.00;99119.06;5107671;28;20203;-75
2023/07/05 05:18:12;;;;;;;9.25;5.25;;;;;;;21.61;100.00;99117.25;5093929;28;20606;-75
2023/07/05 05:20:39;;;;;;;5.55;5.00;;;;;;;21.58;100.00;99109.72;5111437;28;20211;-76
2023/07/05 05:23:06;;;;;;;5.55;4.97;;;;;;;21.43;100.00;99119.81;5093772;28;20195;-74
2023/07/05 05:25:33;;;;;;;11.07;5.10;;;;;;;21.40;100.00;99112.25;5110446;28;20217;-74
2023/07/05 05:28:00;;;;;;;6.40;5.38;;;;;;;21.34;100.00;99107.19;5111479;28;20754;-75
2023/07/05 05:30:27;;;;;;;7.32;5.80;;;;;;;21.33;100.00;99111.81;5112011;28;20611;-74
2023/07/05 05:32:54;;;;;;;6.97;5.47;;;;;;;21.23;100.00;99112.00;5111569;28;20199;-75
2023/07/05 05:35:21;;;;;;;6.47;5.07;;;;;;;21.15;100.00;99101.00;5111931;28;20654;-74
2023/07/05 05:37:47;;;;;;;6.00;5.22;;;;;;;21.05;100.00;99110.16;5111729;28;20689;-75
2023/07/05 05:40:14;;;;;;;7.15;5.03;;;;;;;20.96;100.00;99104.59;5111633;28;20215;-75
2023/07/05 05:42:41;;;;;;;7.10;5.20;;;;;;;20.96;100.00;99107.31;5111665;28;20188;-76
2023/07/05 05:45:08;;;;;;;5.88;5.28;;;;;;;21.01;100.00;99109.13;5084853;28;20696;-74
2023/07/05 05:47:34;;;;;;;7.18;5.40;;;;;;;21.21;100.00;99105.28;5102299;28;20299;-75
2023/07/05 05:50:01;;;;;;;7.75;5.32;;;;;;;21.40;100.00;99104.06;5105538;28;20192;-74
2023/07/05 05:52:28;;;;;;;6.28;5.68;;;;;;;21.98;100.00;99108.06;5101109;28;20187;-75
2023/07/05 05:54:54;;;;;;;6.45;5.63;;;;;;;22.62;100.00;99113.09;5104412;28;20286;-74
2023/07/05 05:57:21;;;;;;;7.43;5.93;;;;;;;23.00;100.00;99104.53;5105864;28;20183;-75
2023/07/05 05:59:48;;;;;;;8.75;5.53;;;;;;;23.27;100.00;99101.59;5102807;28;20631;-76
2023/07/05 06:02:14;;;;;;;9.07;6.00;;;;;;;23.24;100.00;99107.66;5107353;28;20222;-75
2023/07/05 06:04:43;;;;;;;8.80;5.93;;;;;;;23.18;100.00;99108.94;5104034;28;20235;-76
2023/07/05 06:07:10;;;;;;;7.15;5.75;;;;;;;23.11;100.00;99116.78;5088945;28;20238;-75
2023/07/05 06:09:45;;;;;;;7.82;5.63;;;;;;;23.01;100.00;99108.84;5108778;28;20217;-75
2023/07/05 06:12:12;;;;;;;6.38;5.68;;;;;;;22.85;100.00;99113.09;5083540;28;20193;-74
2023/07/05 06:14:39;;;;;;;7.75;6.28;;;;;;;22.81;100.00;99110.19;5103329;28;20187;-77
2023/07/05 06:17:06;;;;;;;7.82;5.80;;;;;;;22.99;100.00;99113.81;5106269;28;20674;-74
2023/07/05 06:19:33;;;;;;;7.55;6.30;;;;;;;23.10;100.00;99109.69;5108217;28;20204;-74
2023/07/05 06:21:59;;;;;;;8.32;6.03;;;;;;;23.29;100.00;99110.25;5112338;28;20554;-74
2023/07/05 06:24:26;;;;;;;9.60;6.30;;;;;;;23.39;100.00;99112.72;5115319;28;20280;-75
2023/07/05 06:26:53;;;;;;;9.68;6.20;;;;;;;23.38;100.00;99111.09;5115408;28;20546;-75
2023/07/05 06:29:19;;;;;;;8.90;6.28;;;;;;;23.60;100.00;99111.06;5113637;28;20227;-76
2023/07/05 06:31:46;;;;;;;8.15;5.80;;;;;;;23.80;100.00;99112.38;5114076;28;20294;-75
2023/07/05 06:34:12;;;;;;;10.18;5.97;;;;;;;24.01;100.00;99107.09;5111328;28;20615;-75
2023/07/05 06:36:40;;;;;;;8.43;5.78;;;;;;;24.29;100.00;99107.63;5115112;28;20192;-76
2023/07/05 06:39:07;;;;;;;8.27;6.35;;;;;;;24.52;100.00;99114.56;5114885;28;20199;-76
2023/07/05 06:41:33;;;;;;;7.10;5.78;;;;;;;24.37;100.00;99115.84;5106560;28;20246;-76
2023/07/05 06:44:00;;;;;;;6.68;5.97;;;;;;;24.64;100.00;99114.69;5106443;28;20286;-75
2023/07/05 06:46:27;;;;;;;6.85;6.10;;;;;;;24.87;100.00;99113.38;5112114;28;20228;-75
2023/07/05 06:48:53;;;;;;;8.50;5.95;;;;;;;25.12;100.00;99113.66;5103208;28;20215;-75
2023/07/05 06:51:20;;;;;;;6.25;5.70;;;;;;;25.29;100.00;99108.91;5108390;28;20233;-75
2023/07/05 06:53:46;;;;;;;6.00;5.40;;;;;;;25.43;100.00;99105.94;5105570;28;20222;-75
2023/07/05 06:56:16;;;;;;;9.02;5.68;;;;;;;25.70;100.00;99112.94;5109386;28;20203;-75
2023/07/05 06:58:43;;;;;;;6.85;5.40;;;;;;;25.91;100.00;99110.22;5109997;28;20585;-77
2023/07/05 07:01:10;;;;;;;9.20;5.38;;;;;;;26.02;100.00;99116.94;5114163;28;20626;-77
2023/07/05 07:03:38;;;;;;;7.25;5.50;;;;;;;25.84;100.00;99108.03;5113982;28;20601;-74
2023/07/05 07:06:05;;;;;;;6.88;5.38;;;;;;;26.10;100.00;99113.31;5109677;28;20282;-75
2023/07/05 07:08:38;;;;;;;5.97;5.38;;;;;;;26.11;100.00;99112.19;5108293;28;20215;-75
2023/07/05 07:11:06;;;;;;;6.60;5.43;;;;;;;26.50;100.00;99116.44;5087567;28;20286;-75
2023/07/05 07:13:33;;;;;;;5.80;5.20;;;;;;;26.87;100.00;99118.19;5110761;28;20198;-76
2023/07/05 07:16:07;;;;;;;6.45;5.28;;;;;;;27.35;100.00;99117.47;5114756;28;20192;-75
2023/07/05 07:18:36;;;;;;;6.32;5.15;;;;;;;27.63;100.00;99106.59;5111081;28;20192;-76
2023/07/05 07:21:07;;;;;;;5.90;5.30;;;;;;;27.65;100.00;99106.28;5110673;28;20191;-77
2023/07/05 07:23:33;;;;;;;6.30;5.35;;;;;;;27.42;100.00;99098.47;5113931;28;20299;-75
2023/07/05 07:26:09;;;;;;;6.03;5.43;;;;;;;27.53;100.00;99102.38;5114201;28;20256;-74
2023/07/05 07:28:36;;;;;;;7.13;5.07;;;;;;;27.60;100.00;99107.31;5113893;28;20230;-75
2023/07/05 07:31:29;;;;;;;5.20;4.70;;;;;;;27.68;100.00;99098.13;5113981;28;20192;-78
2023/07/05 07:33:57;;;;;;;6.07;5.25;;;;;;;27.71;100.00;99091.16;5109077;28;20184;-77
2023/07/05 07:36:26;;;;;;;6.15;4.85;;;;;;;27.82;100.00;99095.81;5110077;28;20188;-78
2023/07/05 07:38:53;;;;;;;6.22;5.10;;;;;;;28.26;100.00;99096.00;5089853;28;20200;-75
2023/07/05 07:41:22;;;;;;;6.18;5.10;;;;;;;28.51;100.00;99086.47;5103664;28;20564;-75
2023/07/05 07:43:51;;;;;;;5.45;4.90;;;;;;;28.84;100.00;99092.53;5113258;28;20223;-75
2023/07/05 07:46:19;;;;;;;5.93;5.15;;;;;;;29.28;100.00;99085.00;5113827;28;20199;-77
2023/07/05 07:48:48;;;;;;;5.53;4.80;;;;;;;29.44;97.77;99089.75;5111630;28;20219;-79
2023/07/05 07:51:17;;;;;;;5.40;4.90;;;;;;;29.60;94.57;99083.03;5113207;28;20191;-77
2023/07/05 07:54:03;;;;;;;4.93;4.43;;;;;;;29.16;93.07;99076.03;5109235;28;20229;-77
2023/07/05 07:56:30;;;;;;;6.68;4.25;;;;;;;29.30;93.67;99079.94;5113265;28;20196;-78
2023/07/05 07:59:00;;;;;;;7.80;4.63;;;;;;;29.22;90.99;99074.59;5102427;28;20199;-78
2023/07/05 08:01:32;;;;;;;5.28;4.20;;;;;;;29.10;90.62;99069.97;5087548;28;20287;-78
2023/07/05 08:04:01;;;;;;;5.85;4.10;;;;;;;29.15;90.49;99075.22;5097522;28;20232;-76
2023/07/05 08:06:33;;;;;;;6.93;3.85;;;;;;;29.27;91.19;99077.09;5084159;28;20192;-76
2023/07/05 08:09:00;;;;;;;5.63;3.90;;;;;;;29.26;89.55;99075.47;5107184;28;20298;-76
2023/07/05 08:11:27;;;;;;;5.00;4.35;;;;;;;29.51;91.34;99076.13;5101573;28;20211;-75
2023/07/05 08:13:54;;;;;;;4.65;4.22;;;;;;;29.32;90.20;99063.06;5106898;28;20196;-75
2023/07/05 08:16:21;;;;;;;4.47;4.07;;;;;;;29.35;90.39;99070.59;5109401;28;20193;-76
2023/07/05 08:18:48;;;;;;;6.22;4.55;;;;;;;29.34;88.18;99060.75;5107483;28;20315;-76
2023/07/05 08:21:15;;;;;;;4.53;4.03;;;;;;;29.30;90.77;99073.66;5106974;28;20253;-77
2023/07/05 08:23:43;;;;;;;6.85;4.60;;;;;;;29.31;92.47;99067.75;5108347;28;20219;-75
2023/07/05 08:26:10;;;;;;;5.47;4.97;;;;;;;29.40;91.82;99059.28;5109751;28;20214;-75
2023/07/05 08:28:37;;;;;;;6.35;4.20;;;;;;;29.76;90.25;99066.47;5090384;28;20215;-76
2023/07/05 08:31:05;;;;;;;5.18;4.38;;;;;;;29.93;87.25;99063.31;5112932;28;20184;-77
2023/07/05 08:33:34;;;;;;;7.50;4.60;;;;;;;30.10;85.26;99056.56;5103414;28;20261;-79
2023/07/05 08:36:31;;;;;;;5.53;4.55;;;;;;;30.24;82.50;99056.84;5077024;28;20216;-77
2023/07/05 08:38:59;;;;;;;5.63;4.05;;;;;;;30.27;80.45;99053.38;5103649;28;20203;-78
2023/07/05 08:41:29;;;;;;;4.85;4.10;;;;;;;30.38;81.12;99045.28;5096547;28;20184;-78
2023/07/05 08:44:14;;;;;;;5.45;4.13;;;;;;;30.43;80.19;99062.38;5099248;28;20207;-78
2023/07/05 08:46:41;;;;;;;4.88;4.47;;;;;;;30.73;79.57;99051.53;5098834;28;20250;-78
2023/07/05 08:49:12;;;;;;;5.72;4.20;;;;;;;30.51;79.92;99052.31;5111378;28;20218;-78
2023/07/05 08:51:41;;;;;;;5.03;4.60;;;;;;;30.60;79.99;99053.69;5086269;28;20192;-78
2023/07/05 08:54:12;;;;;;;4.60;4.20;;;;;;;30.91;75.83;99051.84;5094360;28;20238;-76
2023/07/05 08:56:42;;;;;;;3.97;3.67;;;;;;;31.04;73.89;99045.81;5089845;28;20276;-79
2023/07/05 08:59:53;;;;;;;4.55;3.92;;;;;;;31.23;73.76;99044.13;5072763;28;20254;-79
2023/07/05 09:02:20;;;;;;;4.18;3.78;;;;;;;31.04;72.38;99047.75;5047162;28;20203;-78
2023/07/05 09:04:49;;;;;;;8.55;4.75;;;;;;;31.17;72.05;99037.31;5065222;28;20229;-75
2023/07/05 09:07:26;;;;;;;6.30;4.13;;;;;;;31.15;71.20;99034.91;5088789;28;20616;-77
2023/07/05 09:10:07;;;;;;;4.60;4.10;;;;;;;30.94;72.21;99037.28;5108004;28;20205;-78
2023/07/05 09:12:48;;;;;;;4.95;3.92;;;;;;;30.94;71.93;99031.75;5094566;28;20192;-77
2023/07/05 09:15:24;;;;;;;5.32;4.13;;;;;;;31.17;70.86;99046.41;5104755;28;20187;-78
2023/07/05 09:18:04;;;;;;;5.00;3.95;;;;;;;31.37;70.14;99036.84;5087122;28;20264;-77
2023/07/05 09:20:53;;;;;;;4.07;3.78;;;;;;;31.57;68.63;99043.13;5089664;28;20775;-77
2023/07/05 09:23:36;;;;;;;4.65;4.15;;;;;;;31.75;67.10;99035.88;5087442;28;20195;-78
2023/07/05 09:26:36;;;;;;;4.55;3.88;;;;;;;31.78;66.33;99034.31;5094201;28;20207;-77
2023/07/05 09:29:13;;;;;;;6.00;3.78;;;;;;;32.07;66.16;99032.72;5097998;28;20311;-76
2023/07/05 09:31:41;;;;;;;5.15;4.07;;;;;;;32.13;65.48;99026.50;5101476;28;20214;-79
2023/07/05 09:34:17;;;;;;;4.15;3.78;;;;;;;32.08;64.49;99029.56;5093881;28;20207;-78
2023/07/05 09:36:44;;;;;;;5.57;4.15;;;;;;;32.31;63.08;99026.72;5109472;28;20203;-77
2023/07/05 09:39:26;;;;;;;5.32;3.95;;;;;;;32.46;62.38;99022.94;5093713;28;20195;-78
2023/07/05 09:41:56;;;;;;;4.55;3.85;;;;;;;32.54;59.58;99024.59;5086142;28;20734;-78
2023/07/05 09:44:23;;;;;;;4.18;3.15;;;;;;;32.76;57.40;99008.97;5108074;28;20183;-77
2023/07/05 09:46:50;;;;;;;4.10;3.70;;;;;;;32.81;57.85;99018.94;5115844;28;20275;-78
2023/07/05 09:49:17;;;;;;;4.00;3.70;;;;;;;32.96;57.20;99015.91;5111177;28;20216;-78
2023/07/05 09:51:46;;;;;;;3.83;3.53;;;;;;;32.90;56.64;99013.84;5097159;28;20198;-77
2023/07/05 09:54:25;;;;;;;4.38;3.60;;;;;;;33.01;56.47;99014.75;5115587;28;20564;-77
2023/07/05 09:57:09;;;;;;;5.20;3.70;;;;;;;33.06;56.10;99009.66;5114810;28;20561;-77
2023/07/05 09:59:36;;;;;;;3.85;3.20;;;;;;;33.46;55.83;99008.78;5098952;28;20199;-78
2023/07/05 10:02:12;;;;;;;3.85;3.55;;;;;;;33.30;56.18;99002.72;5116140;28;20275;-77
2023/07/05 10:04:44;;;;;;;4.05;3.65;;;;;;;33.18;54.64;99011.34;5116216;28;20231;-77
2023/07/05 10:07:19;;;;;;;3.90;3.50;;;;;;;33.62;55.94;99003.72;5114845;28;20670;-76
2023/07/05 10:10:09;;;;;;;4.90;4.00;;;;;;;33.72;55.45;99004.22;5115588;28;20220;-76
2023/07/05 10:12:39;;;;;;;3.90;3.60;;;;;;;33.86;55.76;99005.09;5115844;28;20278;-76
2023/07/05 10:15:23;;;;;;;3.67;3.30;;;;;;;33.43;54.79;99000.44;5115022;28;20245;-78
2023/07/05 10:17:52;;;;;;;4.68;3.55;;;;;;;33.25;53.93;98991.19;5115916;28;20199;-78
2023/07/05 10:20:28;;;;;;;3.47;3.17;;;;;;;33.25;54.78;98994.75;5106870;28;20406;-78
2023/07/05 10:23:01;;;;;;;4.07;3.70;;;;;;;33.28;53.50;98987.63;5116045;28;20195;-78
2023/07/05 10:25:35;;;;;;;4.78;3.60;;;;;;;33.22;54.71;98992.78;5090160;28;20221;-76
2023/07/05 10:28:04;;;;;;;3.70;3.40;;;;;;;33.08;54.23;98979.53;5084939;28;20539;-78
2023/07/05 10:30:31;;;;;;;4.53;3.85;;;;;;;33.17;54.59;98985.59;5088113;28;20226;-78
2023/07/05 10:33:28;;;;;;;5.05;3.70;;;;;;;32.83;53.74;98984.09;5097068;28;20192;-77
2023/07/05 10:36:02;;;;;;;4.28;3.50;;;;;;;32.85;54.69;98980.94;5087708;28;20284;-77
2023/07/05 10:38:34;;;;;;;3.83;3.50;;;;;;;32.73;53.72;98979.25;5101600;28;20199;-76
2023/07/05 10:41:20;;;;;;;4.97;3.83;;;;;;;32.83;54.02;98973.00;5085248;28;20200;-79
2023/07/05 10:44:01;;;;;;;3.92;3.33;;;;;;;32.69;53.40;98975.66;5100172;28;20577;-78
2023/07/05 10:46:28;;;;;;;3.47;3.17;;;;;;;32.43;53.19;98964.69;5086115;28;20218;-77
2023/07/05 10:48:56;;;;;;;4.35;3.30;;;;;;;32.40;52.92;98970.97;5102425;28;20212;-78
2023/07/05 10:51:25;;;;;;;4.43;3.53;;;;;;;32.26;53.31;98958.56;5099317;28;20413;-76
2023/07/05 10:54:03;;;;;;;4.07;3.30;;;;;;;32.19;54.20;98957.69;5083333;28;20663;-77
2023/07/05 10:56:32;;;;;;;3.47;3.00;;;;;;;32.26;54.04;98958.56;5075436;28;20207;-77
2023/07/05 10:59:13;;;;;;;4.00;3.03;;;;;;;32.28;53.93;98953.44;5080263;28;20279;-77
2023/07/05 11:01:47;;;;;;;4.78;3.40;;;;;;;32.38;53.64;98957.50;5104232;28;20191;-76
2023/07/05 11:04:18;;;;;;;4.18;3.30;;;;;;;32.44;53.33;98953.19;5083987;28;20220;-77
2023/07/05 11:06:46;;;;;;;3.70;3.33;;;;;;;32.33;52.73;98942.00;5104041;28;20719;-78
2023/07/05 11:09:13;;;;;;;4.80;3.30;;;;;;;32.28;51.81;98936.81;5094310;28;20433;-77
2023/07/05 11:11:57;;;;;;;3.80;3.50;;;;;;;32.43;52.25;98931.41;5114714;28;20701;-77
2023/07/05 11:14:28;;;;;;;3.50;2.80;;;;;;;32.41;51.63;98928.22;5114365;28;20196;-77
2023/07/05 11:16:56;;;;;;;3.85;3.17;;;;;;;32.64;52.88;98912.22;5096918;28;20198;-77
2023/07/05 11:19:28;;;;;;;4.07;3.30;;;;;;;32.78;51.25;98917.88;5081407;28;20665;-77
2023/07/05 11:21:55;;;;;;;4.72;3.53;;;;;;;32.93;51.03;98905.72;5090381;28;20207;-77
2023/07/05 11:24:25;;;;;;;3.45;3.15;;;;;;;33.14;51.44;98894.75;5106407;28;20287;-76
2023/07/05 11:26:51;;;;;;;4.28;3.15;;;;;;;33.32;51.30;98892.09;5107334;28;20199;-76
2023/07/05 11:29:24;;;;;;;4.15;3.63;;;;;;;33.55;51.62;98892.59;5105393;28;20292;-77
2023/07/05 11:31:56;;;;;;;5.03;3.30;;;;;;;33.45;50.22;98893.38;5108414;28;20196;-76
2023/07/05 11:34:23;;;;;;;4.15;3.42;;;;;;;33.70;50.13;98901.00;5088726;28;20203;-79
2023/07/05 11:37:05;;;;;;;3.53;3.22;;;;;;;34.01;49.79;98892.00;5108184;28;20195;-80
2023/07/05 11:39:41;;;;;;;4.28;3.33;;;;;;;34.46;47.92;98884.94;5097632;28;20202;-79
2023/07/05 11:42:17;;;;;;;3.40;3.05;;;;;;;34.41;47.61;98893.69;5106894;28;20663;-77
2023/07/05 11:45:08;;;;;;;3.65;3.35;;;;;;;34.49;46.25;98884.94;5114104;28;20230;-78